SBRF/REC METAR and TAF weather

Enter ICAO airport designator
Station Type Date Time Source
SBRF METAR 2022/09/26 08:00 UTC NOAA

SBRF 260800Z 12008KT 080V160 9999 SCT023 26/20 Q1015


Station Type Date Time Source
SBRF Decoded METAR 2022/09/26 08:00 UTC NOAA

Recife Aeroporto , Brazil (SBRF) 08-04S 034-51W
Sep 26, 2022 - 04:00 AM EDT / 2022.09.26 0800 UTC
Wind: from the ESE (120 degrees) at 9 MPH (8 KT) (direction variable):0
Visibility: greater than 7 mile(s):0
Sky conditions: partly cloudy
Temperature: 78 F (26 C)
Dew Point: 68 F (20 C)
Relative Humidity: 69%
Pressure (altimeter): 29.97 in. Hg (1015 hPa)
ob: SBRF 260800Z 12008KT 080V160 9999 SCT023 26/20 Q1015
cycle: 8

Station Type Date Time Source
SBRF TAF 2022/09/26 06:43 UTC NOAA

TAF SBRF 260030Z 2606/2706 13007KT 7000 SCT020 TN24/2609Z TX29/2616Z
BECMG 2610/2613 16010KT
BECMG 2618/2620 12007KT BKN020 FEW025TCU
BECMG 2620/2623 08007KT 9999 SCT020
RMK PHN

Example: see airport list